createdAt,value
2023-03-01T00:01:52.270Z,20.47
2023-03-01T00:04:18.660Z,21.00
2023-03-01T00:06:47.244Z,20.50
2023-03-01T00:09:13.597Z,21.13
2023-03-01T00:11:39.956Z,20.63
2023-03-01T00:14:07.733Z,21.30
2023-03-01T00:16:37.295Z,21.20
2023-03-01T00:19:03.668Z,21.43
2023-03-01T00:21:30.013Z,22.57
2023-03-01T00:23:56.386Z,22.60
2023-03-01T00:26:22.725Z,22.47
2023-03-01T00:28:49.107Z,22.63
2023-03-01T00:31:15.437Z,23.50
2023-03-01T00:33:41.790Z,23.73
2023-03-01T00:36:08.175Z,22.67
2023-03-01T00:38:34.489Z,23.40
2023-03-01T00:41:00.847Z,22.73
2023-03-01T00:43:27.186Z,22.37
2023-03-01T00:45:53.537Z,22.03
2023-03-01T00:48:19.908Z,23.27
2023-03-01T00:50:46.255Z,25.47
2023-03-01T00:53:12.597Z,24.17
2023-03-01T00:55:39.004Z,24.57
2023-03-01T00:58:05.341Z,23.27
2023-03-01T01:00:31.705Z,22.83
2023-03-01T01:02:58.071Z,22.70
2023-03-01T01:05:24.448Z,20.73
2023-03-01T01:07:50.876Z,24.60
2023-03-01T01:10:22.029Z,27.40
2023-03-01T01:12:48.378Z,29.10
2023-03-01T01:15:16.730Z,21.40
2023-03-01T01:17:43.054Z,22.40
2023-03-01T01:20:09.451Z,21.10
2023-03-01T01:22:35.792Z,22.80
2023-03-01T01:25:02.180Z,21.40
2023-03-01T01:27:28.513Z,21.50
2023-03-01T01:29:54.903Z,21.47
2023-03-01T01:32:21.266Z,21.83
2023-03-01T01:34:47.779Z,21.77
2023-03-01T01:37:14.179Z,22.07
2023-03-01T01:39:40.529Z,21.83
2023-03-01T01:42:06.885Z,21.97
2023-03-01T01:44:33.230Z,21.20
2023-03-01T01:46:59.566Z,21.87
2023-03-01T01:49:25.900Z,21.53
2023-03-01T01:51:52.253Z,21.07
2023-03-01T01:54:18.599Z,20.30
2023-03-01T01:56:44.960Z,20.30
2023-03-01T01:59:11.293Z,21.13
2023-03-01T02:01:37.624Z,20.40
2023-03-01T02:04:03.969Z,21.10
2023-03-01T02:06:30.686Z,20.10
2023-03-01T02:08:57.254Z,20.70
2023-03-01T02:11:23.572Z,20.00
2023-03-01T02:13:50.311Z,19.77
2023-03-01T02:16:16.698Z,20.00
2023-03-01T02:18:43.118Z,21.00
2023-03-01T02:21:09.475Z,19.40
2023-03-01T02:23:35.836Z,19.70
2023-03-01T02:26:02.171Z,20.47
2023-03-01T02:28:28.508Z,20.80
2023-03-01T02:31:13.867Z,19.90
2023-03-01T02:33:40.247Z,19.23
2023-03-01T02:36:06.574Z,19.63
2023-03-01T02:38:32.972Z,20.70
2023-03-01T02:40:59.299Z,20.27
2023-03-01T02:43:25.640Z,19.63
2023-03-01T02:45:52.094Z,19.83
2023-03-01T02:48:18.636Z,20.33
2023-03-01T02:50:45.025Z,19.60
2023-03-01T02:53:11.383Z,20.83
2023-03-01T02:55:37.692Z,20.70
2023-03-01T02:58:04.079Z,20.30
2023-03-01T03:00:30.539Z,19.83
2023-03-01T03:02:58.275Z,20.37
2023-03-01T03:05:24.838Z,20.83
2023-03-01T03:07:51.224Z,21.43
2023-03-01T03:10:17.557Z,20.83
2023-03-01T03:12:43.943Z,22.20
2023-03-01T03:15:10.285Z,20.63
2023-03-01T03:17:36.644Z,19.93
2023-03-01T03:20:04.266Z,20.57
2023-03-01T03:22:30.766Z,19.73
2023-03-01T03:24:57.110Z,19.43
2023-03-01T03:27:23.479Z,19.73
2023-03-01T03:29:50.502Z,19.90
2023-03-01T03:32:16.848Z,20.10
2023-03-01T03:34:43.247Z,18.70
2023-03-01T03:37:29.595Z,19.83
2023-03-01T03:39:55.999Z,20.00
2023-03-01T03:42:23.100Z,19.80
2023-03-01T03:44:49.474Z,19.17
2023-03-01T03:47:15.833Z,18.70
2023-03-01T03:49:42.159Z,20.40
2023-03-01T03:52:14.437Z,19.17
2023-03-01T03:54:40.829Z,18.83
2023-03-01T03:57:07.238Z,18.33
2023-03-01T03:59:33.610Z,20.07
2023-03-01T04:02:00.187Z,19.10
2023-03-01T04:04:26.629Z,17.77
2023-03-01T04:06:52.957Z,18.13
2023-03-01T04:09:19.293Z,18.70
2023-03-01T04:11:45.665Z,19.77
2023-03-01T04:14:12.083Z,20.10
2023-03-01T04:16:38.460Z,18.90
2023-03-01T04:19:07.481Z,19.27
2023-03-01T04:21:33.911Z,19.10
2023-03-01T04:24:00.354Z,19.30
2023-03-01T04:26:28.095Z,18.77
2023-03-01T04:28:54.456Z,19.40
2023-03-01T04:31:22.515Z,19.33
2023-03-01T04:33:49.096Z,17.90
2023-03-01T04:36:15.535Z,19.83
2023-03-01T04:38:41.943Z,19.20
2023-03-01T04:41:08.320Z,18.27
2023-03-01T04:43:35.220Z,19.13
2023-03-01T04:46:03.945Z,18.60
2023-03-01T04:48:30.358Z,19.27
2023-03-01T04:50:56.810Z,17.93
2023-03-01T04:53:23.166Z,18.83
2023-03-01T04:55:49.469Z,20.03
2023-03-01T04:58:15.802Z,18.10
2023-03-01T05:00:42.143Z,18.73
2023-03-01T05:03:08.464Z,18.47
2023-03-01T05:05:34.872Z,18.20
2023-03-01T05:08:01.243Z,18.73
2023-03-01T05:10:27.615Z,19.93
2023-03-01T05:12:54.130Z,20.37
2023-03-01T05:15:22.803Z,19.57
2023-03-01T05:17:49.164Z,18.43
2023-03-01T05:20:15.551Z,19.57
2023-03-01T05:22:41.940Z,18.57
2023-03-01T05:25:08.358Z,18.70
2023-03-01T05:27:34.707Z,18.67
2023-03-01T05:30:14.358Z,19.80
2023-03-01T05:32:40.790Z,18.50
2023-03-01T05:35:07.142Z,19.10
2023-03-01T05:37:33.494Z,18.57
2023-03-01T05:39:59.789Z,18.07
2023-03-01T05:42:26.130Z,19.27
2023-03-01T05:44:52.526Z,17.77
2023-03-01T05:47:18.916Z,18.53
2023-03-01T05:49:45.251Z,20.17
2023-03-01T05:52:11.621Z,18.60
2023-03-01T05:54:37.950Z,19.27
2023-03-01T05:57:04.292Z,20.57
2023-03-01T05:59:30.890Z,20.10
2023-03-01T06:01:57.292Z,20.70
2023-03-01T06:04:23.671Z,19.73
2023-03-01T06:06:50.140Z,20.30
2023-03-01T06:09:16.848Z,18.17
2023-03-01T06:11:43.195Z,18.97
2023-03-01T06:14:09.588Z,18.63
2023-03-01T06:16:35.994Z,19.27
2023-03-01T06:19:02.414Z,18.97
2023-03-01T06:21:28.796Z,19.00
2023-03-01T06:23:55.246Z,17.10
2023-03-01T06:26:21.666Z,18.10
2023-03-01T06:28:48.016Z,19.13
2023-03-01T06:31:14.502Z,18.10
2023-03-01T06:33:40.929Z,18.60
2023-03-01T06:36:07.326Z,18.00
2023-03-01T06:38:33.666Z,18.37
2023-03-01T06:41:00.117Z,18.30
2023-03-01T06:43:26.477Z,18.97
2023-03-01T06:45:52.821Z,18.27
2023-03-01T06:48:19.179Z,18.60
2023-03-01T06:50:45.643Z,18.37
2023-03-01T06:53:12.099Z,19.30
2023-03-01T06:55:38.454Z,19.57
2023-03-01T06:58:04.849Z,20.73
2023-03-01T07:00:31.269Z,18.87
2023-03-01T07:02:57.629Z,18.77
2023-03-01T07:05:24.018Z,20.20
2023-03-01T07:07:50.356Z,20.47
2023-03-01T07:10:16.703Z,20.03
2023-03-01T07:12:43.038Z,20.03
2023-03-01T07:15:10.518Z,19.60
2023-03-01T07:17:36.887Z,19.40
2023-03-01T07:20:03.277Z,19.73
2023-03-01T07:22:29.654Z,20.03
2023-03-01T07:24:56.044Z,18.83
2023-03-01T07:27:22.364Z,20.30
2023-03-01T07:29:48.748Z,20.13
2023-03-01T07:32:15.160Z,19.73
2023-03-01T07:34:41.595Z,19.27
2023-03-01T07:37:08.029Z,20.23
2023-03-01T07:39:34.395Z,19.73
2023-03-01T07:42:00.789Z,18.17
2023-03-01T07:44:27.213Z,19.83
2023-03-01T07:46:57.425Z,20.23
2023-03-01T07:49:23.948Z,18.93
2023-03-01T07:51:50.354Z,20.07
2023-03-01T07:54:16.712Z,19.83
2023-03-01T07:56:43.072Z,20.20
2023-03-01T07:59:09.481Z,18.83
2023-03-01T08:01:35.862Z,19.10
2023-03-01T08:04:02.868Z,20.37
2023-03-01T08:06:29.483Z,20.70
2023-03-01T08:08:56.553Z,19.03
2023-03-01T08:11:22.974Z,19.90
2023-03-01T08:13:51.394Z,18.93
2023-03-01T08:16:18.751Z,19.00
2023-03-01T08:18:45.151Z,20.50
2023-03-01T08:21:11.523Z,19.93
2023-03-01T08:23:37.860Z,19.70
2023-03-01T08:26:04.419Z,18.80
2023-03-01T08:28:30.746Z,20.12
2023-03-01T08:30:57.100Z,19.90
2023-03-01T08:33:23.535Z,20.48
2023-03-01T08:35:49.964Z,19.33
2023-03-01T08:38:16.452Z,21.00
2023-03-01T08:40:42.781Z,20.25
2023-03-01T08:43:09.114Z,20.25
2023-03-01T08:45:35.704Z,20.77
2023-03-01T08:48:02.030Z,20.13
2023-03-01T08:50:28.426Z,20.17
2023-03-01T08:52:54.766Z,19.15
2023-03-01T08:55:21.172Z,22.20
2023-03-01T08:57:47.511Z,21.58
2023-03-01T09:00:16.042Z,19.65
2023-03-01T09:02:42.405Z,20.83
2023-03-01T09:05:08.832Z,20.67
2023-03-01T09:07:35.245Z,19.98
2023-03-01T09:10:01.581Z,20.52
2023-03-01T09:12:28.003Z,21.75
2023-03-01T09:14:54.369Z,20.55
2023-03-01T09:17:22.718Z,21.65
2023-03-01T09:19:49.703Z,21.48
2023-03-01T09:22:16.155Z,21.87
2023-03-01T09:24:42.674Z,20.35
2023-03-01T09:27:09.890Z,20.92
2023-03-01T09:29:36.222Z,19.75
2023-03-01T09:32:02.622Z,20.05
2023-03-01T09:34:29.118Z,21.45
2023-03-01T09:36:55.441Z,21.65
2023-03-01T09:39:21.824Z,21.80
2023-03-01T09:41:48.226Z,20.17
2023-03-01T09:44:14.715Z,20.60
2023-03-01T09:46:41.069Z,19.62
2023-03-01T09:49:07.421Z,20.12
2023-03-01T09:51:33.742Z,20.45
2023-03-01T09:54:01.944Z,20.62
2023-03-01T09:56:28.389Z,20.10
2023-03-01T09:58:55.022Z,20.23
2023-03-01T10:01:21.472Z,21.27
2023-03-01T10:03:47.859Z,22.60
2023-03-01T10:06:27.371Z,20.75
2023-03-01T10:08:58.784Z,19.33
2023-03-01T10:11:25.484Z,20.83
2023-03-01T10:13:54.040Z,17.80
2023-03-01T10:16:21.962Z,19.70
2023-03-01T10:18:48.380Z,20.30
2023-03-01T10:21:14.723Z,21.90
2023-03-01T10:23:41.053Z,20.35
2023-03-01T10:26:07.418Z,20.85
2023-03-01T10:28:33.874Z,20.98
2023-03-01T10:31:00.352Z,20.92
2023-03-01T10:33:26.746Z,20.55
2023-03-01T10:35:53.148Z,20.55
2023-03-01T10:38:19.939Z,20.17
2023-03-01T10:40:46.293Z,20.75
2023-03-01T10:43:12.965Z,19.50
2023-03-01T10:45:39.343Z,20.45
2023-03-01T10:48:05.698Z,19.60
2023-03-01T10:50:32.067Z,21.10
2023-03-01T10:52:58.410Z,18.35
2023-03-01T10:55:25.259Z,18.23
2023-03-01T10:57:51.962Z,18.92
2023-03-01T11:00:21.830Z,18.27
2023-03-01T11:02:48.350Z,19.58
2023-03-01T11:05:14.698Z,18.95
2023-03-01T11:07:41.089Z,19.02
2023-03-01T11:10:07.401Z,18.05
2023-03-01T11:12:34.434Z,17.12
2023-03-01T11:15:00.765Z,17.65
2023-03-01T11:17:27.099Z,16.60
2023-03-01T11:20:02.190Z,17.00
2023-03-01T11:22:29.149Z,12.27
2023-03-01T11:25:09.088Z,14.63
2023-03-01T11:27:39.389Z,15.75
2023-03-01T11:30:06.480Z,16.62
2023-03-01T11:32:32.844Z,15.48
2023-03-01T11:34:59.336Z,14.80
2023-03-01T11:37:26.070Z,13.30
2023-03-01T11:39:53.234Z,14.52
2023-03-01T11:42:19.774Z,14.95
2023-03-01T11:44:46.169Z,13.62
2023-03-01T11:47:12.607Z,14.98
2023-03-01T11:49:39.008Z,13.20
2023-03-01T11:52:05.332Z,13.98
2023-03-01T11:54:31.685Z,12.65
2023-03-01T11:56:58.100Z,13.60
2023-03-01T11:59:24.515Z,13.15
2023-03-01T12:01:51.098Z,13.27
2023-03-01T12:04:17.511Z,12.82
2023-03-01T12:06:43.890Z,12.70
2023-03-01T12:09:10.229Z,12.82
2023-03-01T12:11:36.642Z,12.63
2023-03-01T12:14:03.355Z,12.00
2023-03-01T12:16:38.856Z,13.45
2023-03-01T12:19:05.495Z,13.50
2023-03-01T12:21:32.284Z,14.30
2023-03-01T12:23:58.799Z,9.90
2023-03-01T12:26:25.126Z,13.20
2023-03-01T12:28:53.128Z,15.25
2023-03-01T12:31:21.958Z,15.23
2023-03-01T12:33:48.315Z,15.88
2023-03-01T12:36:14.736Z,18.30
2023-03-01T12:38:41.161Z,17.02
2023-03-01T12:41:07.468Z,16.33
2023-03-01T12:43:34.326Z,16.75
2023-03-01T12:46:00.779Z,16.83
2023-03-01T12:48:27.140Z,17.58
2023-03-01T12:50:53.437Z,17.33
2023-03-01T12:53:19.766Z,17.12
2023-03-01T12:55:46.096Z,16.62
2023-03-01T12:58:12.504Z,17.37
2023-03-01T13:00:38.819Z,17.10
2023-03-01T13:03:05.179Z,17.58
2023-03-01T13:05:31.621Z,17.85
2023-03-01T13:07:58.036Z,18.55
2023-03-01T13:10:24.358Z,18.85
2023-03-01T13:12:50.730Z,17.65
2023-03-01T13:15:17.065Z,17.73
2023-03-01T13:17:43.426Z,17.25
2023-03-01T13:20:09.933Z,13.70
2023-03-01T13:22:46.879Z,18.25
2023-03-01T13:25:19.719Z,17.15
2023-03-01T13:27:46.673Z,13.95
2023-03-01T13:30:14.126Z,19.05
2023-03-01T13:32:44.776Z,16.23
2023-03-01T13:35:11.519Z,17.05
2023-03-01T13:37:38.584Z,16.12
2023-03-01T13:40:05.971Z,17.00
2023-03-01T13:42:34.625Z,17.50
2023-03-01T13:45:01.048Z,17.02
2023-03-01T13:47:27.408Z,17.40
2023-03-01T13:49:54.473Z,16.05
2023-03-01T13:52:21.150Z,17.10
2023-03-01T13:54:47.464Z,17.50
2023-03-01T13:57:13.807Z,16.85
2023-03-01T13:59:40.199Z,16.27
2023-03-01T14:02:06.514Z,16.80
2023-03-01T14:04:33.337Z,17.92
2023-03-01T14:06:59.668Z,17.10
2023-03-01T14:09:26.056Z,17.15
2023-03-01T14:11:52.420Z,16.23
2023-03-01T14:14:18.860Z,17.52
2023-03-01T14:16:46.011Z,17.05
2023-03-01T14:19:16.051Z,18.77
2023-03-01T14:21:44.365Z,17.83
2023-03-01T14:24:10.708Z,16.95
2023-03-01T14:26:37.045Z,15.38
2023-03-01T14:29:03.376Z,15.70
2023-03-01T14:31:29.727Z,16.98
2023-03-01T14:33:56.063Z,16.65
2023-03-01T14:36:22.434Z,16.08
2023-03-01T14:38:48.849Z,17.42
2023-03-01T14:41:16.282Z,17.05
2023-03-01T14:43:42.636Z,15.93
2023-03-01T14:46:09.056Z,18.15
2023-03-01T14:48:35.404Z,17.08
2023-03-01T14:51:01.816Z,16.00
2023-03-01T14:53:28.135Z,16.23
2023-03-01T14:55:54.510Z,17.90
2023-03-01T14:58:22.479Z,17.23
2023-03-01T15:00:48.779Z,15.70
2023-03-01T15:03:15.230Z,16.92
2023-03-01T15:05:41.608Z,16.12
2023-03-01T15:08:07.941Z,16.00
2023-03-01T15:10:34.325Z,14.48
2023-03-01T15:13:00.639Z,16.75
2023-03-01T15:15:31.029Z,15.98
2023-03-01T15:17:57.404Z,14.52
2023-03-01T15:20:26.701Z,14.98
2023-03-01T15:22:53.044Z,15.45
2023-03-01T15:25:19.429Z,14.10
2023-03-01T15:27:45.766Z,14.18
2023-03-01T15:30:12.083Z,14.30
2023-03-01T15:32:40.274Z,14.38
2023-03-01T15:35:06.600Z,14.50
2023-03-01T15:37:32.913Z,14.90
2023-03-01T15:39:59.246Z,14.55
2023-03-01T15:42:25.552Z,14.25
2023-03-01T15:44:51.872Z,13.30
2023-03-01T15:47:18.218Z,13.90
2023-03-01T15:49:54.352Z,13.60
2023-03-01T15:52:21.698Z,14.07
2023-03-01T15:54:48.036Z,14.20
2023-03-01T15:57:15.958Z,13.55
2023-03-01T15:59:42.929Z,13.68
2023-03-01T16:02:10.130Z,13.60
2023-03-01T16:04:36.461Z,13.35
2023-03-01T16:07:02.813Z,13.85
2023-03-01T16:09:29.199Z,13.18
2023-03-01T16:11:55.522Z,13.23
2023-03-01T16:14:21.969Z,13.27
2023-03-01T16:16:49.142Z,14.07
2023-03-01T16:19:15.766Z,14.13
2023-03-01T16:21:43.230Z,13.00
2023-03-01T16:24:09.639Z,13.07
2023-03-01T16:26:35.943Z,13.62
2023-03-01T16:29:02.273Z,14.00
2023-03-01T16:31:30.116Z,13.52
2023-03-01T16:33:57.032Z,14.10
2023-03-01T16:36:24.856Z,13.52
2023-03-01T16:38:51.195Z,13.55
2023-03-01T16:41:17.551Z,13.25
2023-03-01T16:43:43.924Z,12.95
2023-03-01T16:46:10.300Z,14.50
2023-03-01T16:48:36.647Z,12.73
2023-03-01T16:51:03.021Z,12.50
2023-03-01T16:53:29.430Z,13.10
2023-03-01T16:55:55.790Z,12.55
2023-03-01T16:58:22.190Z,12.98
2023-03-01T17:00:48.662Z,13.13
2023-03-01T17:03:15.129Z,13.18
2023-03-01T17:05:41.488Z,13.00
2023-03-01T17:08:11.452Z,13.60
2023-03-01T17:10:37.781Z,12.75
2023-03-01T17:13:04.817Z,12.90
2023-03-01T17:15:31.136Z,13.25
2023-03-01T17:17:57.607Z,12.95
2023-03-01T17:20:23.969Z,13.18
2023-03-01T17:22:50.489Z,14.00
2023-03-01T17:25:16.844Z,13.32
2023-03-01T17:27:43.166Z,13.30
2023-03-01T17:30:09.503Z,13.62
2023-03-01T17:32:36.025Z,13.70
2023-03-01T17:35:02.417Z,14.70
2023-03-01T17:37:28.735Z,15.32
2023-03-01T17:39:55.168Z,13.52
2023-03-01T17:42:21.535Z,16.27
2023-03-01T17:44:48.055Z,14.70
2023-03-01T17:47:14.787Z,14.70
2023-03-01T17:49:41.329Z,14.87
2023-03-01T17:52:07.726Z,17.95
2023-03-01T17:54:34.037Z,18.00
2023-03-01T17:57:00.339Z,18.37
2023-03-01T17:59:31.668Z,18.77
2023-03-01T18:01:58.330Z,18.95
2023-03-01T18:04:24.704Z,17.85
2023-03-01T18:06:51.116Z,18.52
2023-03-01T18:09:17.512Z,18.35
2023-03-01T18:11:46.726Z,17.27
2023-03-01T18:14:13.916Z,18.75
2023-03-01T18:16:40.376Z,22.80
2023-03-01T18:19:06.965Z,23.48
2023-03-01T18:21:34.175Z,20.58
2023-03-01T18:24:00.864Z,21.15
2023-03-01T18:26:28.049Z,21.85
2023-03-01T18:28:54.638Z,19.50
2023-03-01T18:31:22.486Z,18.33
2023-03-01T18:33:49.188Z,16.48
2023-03-01T18:36:15.514Z,17.20
2023-03-01T18:38:42.109Z,15.68
2023-03-01T18:41:08.556Z,16.65
2023-03-01T18:43:35.159Z,15.27
2023-03-01T18:46:01.857Z,14.82
2023-03-01T18:48:30.134Z,16.30
2023-03-01T18:50:56.674Z,16.42
2023-03-01T18:53:23.247Z,18.27
2023-03-01T18:55:49.621Z,18.27
2023-03-01T18:58:16.147Z,16.37
2023-03-01T19:00:43.982Z,15.95
2023-03-01T19:03:12.901Z,16.87
2023-03-01T19:05:41.202Z,17.10
2023-03-01T19:08:09.396Z,16.98
2023-03-01T19:10:37.306Z,18.40
2023-03-01T19:13:04.060Z,16.23
2023-03-01T19:15:30.685Z,17.12
2023-03-01T19:17:59.171Z,16.50
2023-03-01T19:20:26.706Z,16.90
2023-03-01T19:22:54.253Z,16.27
2023-03-01T19:25:20.886Z,16.87
2023-03-01T19:27:49.645Z,17.25
2023-03-01T19:30:16.751Z,17.62
2023-03-01T19:32:43.783Z,16.75
2023-03-01T19:35:11.197Z,17.67
2023-03-01T19:37:39.050Z,17.27
2023-03-01T19:40:06.134Z,16.67
2023-03-01T19:42:32.714Z,18.00
2023-03-01T19:45:02.151Z,18.23
2023-03-01T19:47:31.202Z,18.23
2023-03-01T19:49:59.278Z,20.05
2023-03-01T19:52:26.545Z,19.73
2023-03-01T19:54:55.837Z,18.50
2023-03-01T19:57:31.347Z,20.42
2023-03-01T19:59:58.413Z,19.70
2023-03-01T20:02:27.916Z,19.35
2023-03-01T20:04:56.926Z,18.25
2023-03-01T20:07:25.337Z,20.05
2023-03-01T20:09:53.008Z,18.70
2023-03-01T20:12:19.967Z,19.98
2023-03-01T20:14:48.993Z,19.02
2023-03-01T20:17:16.584Z,19.58
2023-03-01T20:19:43.584Z,19.40
2023-03-01T20:22:12.262Z,18.85
2023-03-01T20:24:40.505Z,19.30
2023-03-01T20:27:09.166Z,18.45
2023-03-01T20:29:36.403Z,19.02
2023-03-01T20:32:04.108Z,20.58
2023-03-01T20:34:31.822Z,19.50
2023-03-01T20:36:59.295Z,18.35
2023-03-01T20:39:27.212Z,18.27
2023-03-01T20:41:55.760Z,19.27
2023-03-01T20:44:24.181Z,20.20
2023-03-01T20:46:52.804Z,21.05
2023-03-01T20:49:22.479Z,19.67
2023-03-01T20:51:49.904Z,21.10
2023-03-01T20:54:16.869Z,21.92
2023-03-01T20:56:45.162Z,21.30
2023-03-01T20:59:12.653Z,22.35
2023-03-01T21:01:40.141Z,22.35
2023-03-01T21:04:07.728Z,22.08
2023-03-01T21:06:34.881Z,21.52
2023-03-01T21:09:02.159Z,22.52
2023-03-01T21:11:29.519Z,23.80
2023-03-01T21:13:56.735Z,21.98
2023-03-01T21:16:24.130Z,24.12
2023-03-01T21:18:51.175Z,23.42
2023-03-01T21:21:18.030Z,23.95
2023-03-01T21:23:45.063Z,23.33
2023-03-01T21:26:12.145Z,23.75
2023-03-01T21:28:38.667Z,24.65
2023-03-01T21:31:05.210Z,22.85
2023-03-01T21:33:31.765Z,24.52
2023-03-01T21:35:58.441Z,25.65
2023-03-01T21:38:25.086Z,24.80
2023-03-01T21:40:51.488Z,25.65
2023-03-01T21:43:17.833Z,25.17
2023-03-01T21:45:44.276Z,26.37
2023-03-01T21:48:10.718Z,27.25
2023-03-01T21:50:37.062Z,27.13
2023-03-01T21:53:05.365Z,26.95
2023-03-01T21:55:31.768Z,25.80
2023-03-01T21:57:58.099Z,27.15
2023-03-01T22:00:24.433Z,27.63
2023-03-01T22:02:50.831Z,27.13
2023-03-01T22:05:17.237Z,27.67
2023-03-01T22:07:43.562Z,27.48
2023-03-01T22:10:09.875Z,27.83
2023-03-01T22:12:36.256Z,26.48
2023-03-01T22:15:02.557Z,30.00
2023-03-01T22:17:28.874Z,28.15
2023-03-01T22:19:55.202Z,28.02
2023-03-01T22:22:21.492Z,26.05
2023-03-01T22:24:47.806Z,26.90
2023-03-01T22:27:14.117Z,27.00
2023-03-01T22:29:40.443Z,25.27
2023-03-01T22:32:07.056Z,27.00
2023-03-01T22:34:34.756Z,26.20
2023-03-01T22:37:02.052Z,25.73
2023-03-01T22:39:28.442Z,25.65
2023-03-01T22:41:54.736Z,25.40
2023-03-01T22:44:21.621Z,24.77
2023-03-01T22:46:47.975Z,25.70
2023-03-01T22:49:14.334Z,25.40
2023-03-01T22:51:40.673Z,24.57
2023-03-01T22:54:06.978Z,25.15
2023-03-01T22:56:33.696Z,25.17
2023-03-01T22:59:00.252Z,24.90
2023-03-01T23:01:26.592Z,24.67
2023-03-01T23:03:52.904Z,24.33
2023-03-01T23:06:19.261Z,23.73
2023-03-01T23:08:45.570Z,23.73
2023-03-01T23:11:12.183Z,23.60
2023-03-01T23:13:38.519Z,24.33
2023-03-01T23:16:04.815Z,23.48
2023-03-01T23:18:31.130Z,24.55
2023-03-01T23:20:57.478Z,24.67
2023-03-01T23:23:23.810Z,23.93
2023-03-01T23:25:52.580Z,23.37
2023-03-01T23:28:18.919Z,23.93
2023-03-01T23:30:45.383Z,22.97
2023-03-01T23:33:11.784Z,23.25
2023-03-01T23:35:38.183Z,23.63
2023-03-01T23:38:04.523Z,22.80
2023-03-01T23:40:30.900Z,22.83
2023-03-01T23:42:57.215Z,22.07
2023-03-01T23:45:23.564Z,22.20
2023-03-01T23:47:49.868Z,21.57
2023-03-01T23:50:16.169Z,25.47
2023-03-01T23:52:42.578Z,21.93
2023-03-01T23:55:08.863Z,22.00
2023-03-01T23:57:35.189Z,22.03
